createdAt,value
2018-11-25T00:01:01.785Z,274.50
2018-11-25T00:03:31.831Z,264.30
2018-11-25T00:06:02.027Z,285.83
2018-11-25T00:08:32.643Z,297.13
2018-11-25T00:11:02.560Z,299.47
2018-11-25T00:13:32.673Z,319.67
2018-11-25T00:16:02.794Z,292.40
2018-11-25T00:18:32.805Z,302.63
2018-11-25T00:21:02.840Z,301.37
2018-11-25T00:23:33.154Z,297.63
2018-11-25T00:26:03.509Z,326.13
2018-11-25T00:28:33.719Z,358.90
2018-11-25T00:31:09.401Z,339.33
2018-11-25T00:33:35.001Z,325.70
2018-11-25T00:36:04.768Z,306.47
2018-11-25T00:38:34.917Z,286.97
2018-11-25T00:41:04.854Z,295.57
2018-11-25T00:43:34.910Z,303.53
2018-11-25T00:46:04.597Z,361.50
2018-11-25T00:48:35.195Z,339.60
2018-11-25T00:51:04.951Z,342.37
2018-11-25T00:53:36.007Z,364.07
2018-11-25T00:56:06.391Z,437.20
2018-11-25T00:58:36.837Z,390.23
2018-11-25T01:01:06.686Z,385.03
2018-11-25T01:03:36.981Z,367.43
2018-11-25T01:06:06.804Z,388.97
2018-11-25T01:08:37.124Z,388.83
2018-11-25T01:11:07.261Z,406.13
2018-11-25T01:13:37.629Z,388.00
2018-11-25T01:16:07.714Z,364.80
2018-11-25T01:18:38.032Z,352.77
2018-11-25T01:21:07.993Z,357.53
2018-11-25T01:23:38.289Z,373.67
2018-11-25T01:26:08.028Z,352.23
2018-11-25T01:28:38.420Z,374.73
2018-11-25T01:31:08.554Z,351.63
2018-11-25T01:33:39.233Z,347.80
2018-11-25T01:36:09.273Z,350.37
2018-11-25T01:38:39.677Z,356.90
2018-11-25T01:41:09.559Z,341.77
2018-11-25T01:43:39.518Z,364.97
2018-11-25T01:46:09.642Z,356.43
2018-11-25T01:48:39.878Z,370.80
2018-11-25T01:51:10.395Z,379.97
2018-11-25T01:53:40.541Z,357.97
2018-11-25T01:56:10.756Z,366.60
2018-11-25T01:58:40.794Z,376.20
2018-11-25T02:01:10.716Z,382.43
2018-11-25T02:03:40.905Z,389.50
2018-11-25T02:06:11.515Z,403.13
2018-11-25T02:08:41.322Z,388.70
2018-11-25T02:11:11.485Z,390.33
2018-11-25T02:13:41.793Z,379.27
2018-11-25T02:16:12.157Z,374.93
2018-11-25T02:18:42.661Z,371.67
2018-11-25T02:21:12.967Z,373.33
2018-11-25T02:23:42.952Z,365.57
2018-11-25T02:26:13.281Z,354.53
2018-11-25T02:28:43.678Z,365.03
2018-11-25T02:31:15.746Z,354.60
2018-11-25T02:33:46.843Z,336.53
2018-11-25T02:36:17.596Z,348.13
2018-11-25T02:38:47.676Z,336.87
2018-11-25T02:41:17.840Z,339.90
2018-11-25T02:43:48.201Z,344.07
2018-11-25T02:46:18.239Z,336.10
2018-11-25T02:48:48.315Z,348.03
2018-11-25T02:51:18.600Z,336.83
2018-11-25T02:53:50.226Z,346.27
2018-11-25T02:56:20.728Z,350.90
2018-11-25T02:58:50.985Z,346.83
2018-11-25T03:01:22.689Z,321.30
2018-11-25T03:03:53.285Z,318.87
2018-11-25T03:06:23.864Z,334.53
2018-11-25T03:08:54.040Z,321.93
2018-11-25T03:11:23.923Z,337.40
2018-11-25T03:13:54.847Z,321.03
2018-11-25T03:16:24.654Z,321.70
2018-11-25T03:18:56.033Z,327.57
2018-11-25T03:21:25.714Z,328.13
2018-11-25T03:23:56.026Z,302.33
2018-11-25T03:26:26.197Z,313.70
2018-11-25T03:28:56.433Z,313.13
2018-11-25T03:31:26.716Z,307.40
2018-11-25T03:33:57.792Z,313.63
2018-11-25T03:36:28.506Z,302.13
2018-11-25T03:38:59.240Z,301.83
2018-11-25T03:41:29.469Z,314.63
2018-11-25T03:44:00.995Z,311.53
2018-11-25T03:46:31.368Z,298.23
2018-11-25T03:49:01.795Z,296.47
2018-11-25T03:51:32.484Z,296.27
2018-11-25T03:54:02.602Z,295.57
2018-11-25T03:56:32.784Z,298.10
2018-11-25T03:59:03.110Z,295.87
2018-11-25T04:01:33.114Z,288.47
2018-11-25T04:04:03.831Z,300.63
2018-11-25T04:06:33.802Z,286.77
2018-11-25T04:09:04.363Z,271.97
2018-11-25T04:11:34.179Z,270.50
2018-11-25T04:14:04.606Z,261.20
2018-11-25T04:16:35.202Z,268.33
2018-11-25T04:19:07.006Z,251.13
2018-11-25T04:21:37.780Z,248.70
2018-11-25T04:24:07.677Z,260.00
2018-11-25T04:26:37.795Z,240.90
2018-11-25T04:29:07.875Z,267.70
2018-11-25T04:31:38.463Z,247.93
2018-11-25T04:34:08.430Z,251.63
2018-11-25T04:36:38.882Z,241.40
2018-11-25T04:39:09.490Z,245.23
2018-11-25T04:41:39.890Z,241.80
2018-11-25T04:44:10.553Z,242.73
2018-11-25T04:46:40.958Z,248.40
2018-11-25T04:49:11.086Z,254.07
2018-11-25T04:51:41.522Z,255.00
2018-11-25T04:54:15.683Z,249.77
2018-11-25T04:56:46.392Z,254.60
2018-11-25T04:59:17.277Z,235.33
2018-11-25T05:01:47.523Z,241.87
2018-11-25T05:04:17.281Z,267.70
2018-11-25T05:06:47.470Z,229.50
2018-11-25T05:09:17.473Z,223.77
2018-11-25T05:11:47.480Z,239.17
2018-11-25T05:14:17.597Z,237.23
2018-11-25T05:16:47.676Z,231.47
2018-11-25T05:19:17.421Z,241.93
2018-11-25T05:21:47.830Z,240.67
2018-11-25T05:24:17.603Z,228.40
2018-11-25T05:26:47.681Z,231.23
2018-11-25T05:29:18.549Z,227.27
2018-11-25T05:31:48.839Z,233.23
2018-11-25T05:34:18.932Z,235.27
2018-11-25T05:36:49.387Z,223.93
2018-11-25T05:39:19.670Z,235.23
2018-11-25T05:41:52.145Z,253.27
2018-11-25T05:44:23.361Z,224.13
2018-11-25T05:46:53.291Z,221.47
2018-11-25T05:49:24.535Z,229.30
2018-11-25T05:51:54.582Z,236.67
2018-11-25T05:54:25.306Z,234.60
2018-11-25T05:56:54.899Z,236.83
2018-11-25T05:59:25.403Z,214.13
2018-11-25T06:01:55.884Z,210.80
2018-11-25T06:04:26.047Z,215.57
2018-11-25T06:06:57.963Z,218.93
2018-11-25T06:09:27.759Z,205.07
2018-11-25T06:11:57.804Z,215.33
2018-11-25T06:14:27.950Z,214.47
2018-11-25T06:16:57.667Z,209.27
2018-11-25T06:19:28.006Z,219.80
2018-11-25T06:21:57.683Z,209.80
2018-11-25T06:24:27.840Z,208.00
2018-11-25T06:26:58.649Z,216.70
2018-11-25T06:29:28.170Z,219.90
2018-11-25T06:31:58.366Z,220.20
2018-11-25T06:34:28.193Z,222.63
2018-11-25T06:36:58.590Z,241.47
2018-11-25T06:39:28.413Z,242.93
2018-11-25T06:41:58.717Z,247.77
2018-11-25T06:44:28.716Z,236.47
2018-11-25T06:46:59.843Z,223.53
2018-11-25T06:49:29.608Z,202.00
2018-11-25T06:51:59.976Z,190.57
2018-11-25T06:54:30.085Z,200.90
2018-11-25T06:57:00.479Z,188.03
2018-11-25T06:59:30.498Z,187.77
2018-11-25T07:02:00.718Z,187.90
2018-11-25T07:04:30.729Z,196.63
2018-11-25T07:07:01.446Z,201.93
2018-11-25T07:09:32.174Z,210.60
2018-11-25T07:12:02.660Z,210.00
2018-11-25T07:14:32.644Z,236.87
2018-11-25T07:17:02.769Z,231.03
2018-11-25T07:19:33.458Z,215.33
2018-11-25T07:22:03.548Z,225.50
2018-11-25T07:24:33.166Z,207.93
2018-11-25T07:27:03.417Z,206.23
2018-11-25T07:29:33.761Z,215.57
2018-11-25T07:32:03.887Z,216.73
2018-11-25T07:34:34.233Z,216.57
2018-11-25T07:37:04.642Z,209.33
2018-11-25T07:39:35.400Z,198.77
2018-11-25T07:42:07.676Z,195.00
2018-11-25T07:44:37.550Z,207.53
2018-11-25T07:47:08.926Z,201.60
2018-11-25T07:49:39.249Z,186.13
2018-11-25T07:52:15.119Z,184.03
2018-11-25T07:54:46.838Z,201.60
2018-11-25T07:57:17.242Z,193.57
2018-11-25T07:59:47.836Z,227.33
2018-11-25T08:02:18.263Z,188.17
2018-11-25T08:04:48.600Z,202.67
2018-11-25T08:07:19.162Z,184.97
2018-11-25T08:09:49.621Z,196.43
2018-11-25T08:12:19.839Z,187.47
2018-11-25T08:14:49.580Z,183.90
2018-11-25T08:17:19.568Z,180.90
2018-11-25T08:19:49.389Z,177.97
2018-11-25T08:22:20.260Z,179.23
2018-11-25T08:24:50.232Z,186.07
2018-11-25T08:27:20.553Z,191.00
2018-11-25T08:29:50.476Z,181.77
2018-11-25T08:32:20.513Z,171.93
2018-11-25T08:34:50.880Z,176.97
2018-11-25T08:37:21.594Z,177.70
2018-11-25T08:39:51.995Z,179.73
2018-11-25T08:42:21.759Z,199.87
2018-11-25T08:44:52.210Z,178.83
2018-11-25T08:47:22.237Z,181.30
2018-11-25T08:49:52.989Z,179.37
2018-11-25T08:52:23.409Z,185.13
2018-11-25T08:54:54.927Z,183.03
2018-11-25T08:57:24.993Z,182.07
2018-11-25T08:59:55.564Z,178.33
2018-11-25T09:02:25.717Z,179.70
2018-11-25T09:04:56.205Z,177.30
2018-11-25T09:07:26.725Z,176.87
2018-11-25T09:09:57.163Z,185.43
2018-11-25T09:12:27.236Z,171.00
2018-11-25T09:14:58.570Z,170.70
2018-11-25T09:17:28.525Z,179.60
2018-11-25T09:19:59.996Z,181.17
2018-11-25T09:22:30.166Z,178.00
2018-11-25T09:25:00.792Z,180.63
2018-11-25T09:27:31.531Z,182.90
2018-11-25T09:30:01.604Z,183.67
2018-11-25T09:32:31.523Z,178.40
2018-11-25T09:35:02.550Z,181.57
2018-11-25T09:37:32.800Z,186.07
2018-11-25T09:40:02.637Z,197.10
2018-11-25T09:42:33.286Z,188.13
2018-11-25T09:45:03.229Z,206.07
2018-11-25T09:47:33.913Z,230.43
2018-11-25T09:50:03.925Z,379.97
2018-11-25T09:52:36.165Z,340.27
2018-11-25T09:55:07.195Z,219.37
2018-11-25T09:57:37.364Z,211.37
2018-11-25T10:00:07.363Z,197.73
2018-11-25T10:02:37.430Z,184.73
2018-11-25T10:05:07.880Z,176.13
2018-11-25T10:07:37.953Z,195.73
2018-11-25T10:10:07.762Z,184.83
2018-11-25T10:12:37.532Z,185.63
2018-11-25T10:15:07.574Z,182.20
2018-11-25T10:17:37.805Z,163.37
2018-11-25T10:20:07.485Z,179.13
2018-11-25T10:22:37.282Z,173.20
2018-11-25T10:25:12.274Z,166.00
2018-11-25T10:27:42.886Z,172.73
2018-11-25T10:30:12.690Z,171.47
2018-11-25T10:32:43.198Z,172.40
2018-11-25T10:35:13.007Z,175.80
2018-11-25T10:43:02.058Z,181.33
2018-11-25T10:45:32.282Z,178.73
2018-11-25T10:48:03.000Z,177.83
2018-11-25T10:50:33.271Z,180.17
2018-11-25T10:53:04.000Z,177.93
2018-11-25T10:55:34.083Z,183.93
2018-11-25T10:58:04.594Z,183.60
2018-11-25T11:00:34.609Z,182.77
2018-11-25T11:03:04.404Z,178.80
2018-11-25T11:05:34.122Z,181.17
2018-11-25T11:08:04.688Z,173.77
2018-11-25T11:10:34.884Z,174.13
2018-11-25T11:13:05.295Z,173.27
2018-11-25T11:15:35.370Z,185.20
2018-11-25T11:18:05.358Z,179.03
2018-11-25T11:20:35.154Z,182.63
2018-11-25T11:23:05.371Z,194.53
2018-11-25T11:25:35.352Z,193.23
2018-11-25T11:28:04.979Z,182.67
2018-11-25T11:30:35.204Z,182.20
2018-11-25T11:33:05.606Z,181.20
2018-11-25T11:35:35.850Z,181.90
2018-11-25T11:38:05.921Z,180.23
2018-11-25T11:40:35.398Z,190.30
2018-11-25T11:43:05.759Z,190.43
2018-11-25T11:45:35.721Z,188.63
2018-11-25T11:48:05.774Z,190.17
2018-11-25T11:50:35.967Z,180.07
2018-11-25T11:53:05.907Z,188.63
2018-11-25T11:55:36.308Z,191.43
2018-11-25T11:58:06.342Z,229.03
2018-11-25T12:00:36.670Z,217.93
2018-11-25T12:03:06.876Z,237.07
2018-11-25T12:05:37.276Z,218.93
2018-11-25T12:08:07.632Z,251.27
2018-11-25T12:10:37.842Z,248.47
2018-11-25T12:13:08.886Z,247.73
2018-11-25T12:15:38.878Z,251.40
2018-11-25T12:18:08.828Z,252.93
2018-11-25T12:20:38.804Z,251.73
2018-11-25T12:23:08.846Z,250.73
2018-11-25T12:25:39.215Z,250.97
2018-11-25T12:28:08.988Z,253.60
2018-11-25T12:30:38.952Z,232.30
2018-11-25T12:33:09.435Z,244.40
2018-11-25T12:35:39.531Z,262.77
2018-11-25T12:38:09.770Z,325.07
2018-11-25T12:40:40.203Z,335.30
2018-11-25T12:43:10.701Z,372.77
2018-11-25T12:45:40.450Z,341.57
2018-11-25T12:48:10.952Z,308.53
2018-11-25T12:50:41.440Z,328.53
2018-11-25T12:53:11.837Z,341.87
2018-11-25T12:55:43.291Z,362.60
2018-11-25T12:58:13.759Z,334.27
2018-11-25T13:00:43.873Z,410.00
2018-11-25T13:03:14.232Z,344.87
2018-11-25T13:05:46.249Z,365.43
2018-11-25T13:08:15.724Z,346.13
2018-11-25T13:10:45.429Z,354.97
2018-11-25T13:13:15.871Z,339.73
2018-11-25T13:15:45.805Z,345.20
2018-11-25T13:18:16.365Z,346.30
2018-11-25T13:20:46.291Z,316.00
2018-11-25T13:23:16.281Z,308.60
2018-11-25T13:25:46.905Z,299.90
2018-11-25T13:28:17.350Z,291.13
2018-11-25T13:30:46.994Z,290.20
2018-11-25T13:33:17.677Z,287.27
2018-11-25T13:35:48.150Z,281.57
2018-11-25T13:38:18.557Z,279.93
2018-11-25T13:40:49.528Z,297.07
2018-11-25T13:43:20.653Z,347.57
2018-11-25T13:45:51.079Z,292.97
2018-11-25T13:48:21.813Z,311.17
2018-11-25T13:50:51.852Z,306.57
2018-11-25T13:53:21.959Z,324.60
2018-11-25T13:55:51.563Z,331.07
2018-11-25T13:58:21.896Z,334.10
2018-11-25T14:00:52.823Z,341.23
2018-11-25T14:03:23.316Z,318.40
2018-11-25T14:05:54.927Z,352.07
2018-11-25T14:08:25.287Z,344.90
2018-11-25T14:10:56.042Z,339.00
2018-11-25T14:13:26.394Z,323.37
2018-11-25T14:15:56.961Z,319.27
2018-11-25T14:18:26.719Z,296.73
2018-11-25T14:20:57.418Z,318.00
2018-11-25T14:23:27.859Z,313.03
2018-11-25T14:25:58.091Z,301.83
2018-11-25T14:28:28.798Z,304.33
2018-11-25T14:30:58.637Z,289.77
2018-11-25T14:33:29.380Z,289.33
2018-11-25T14:35:59.309Z,286.20
2018-11-25T14:38:30.850Z,290.60
2018-11-25T14:41:01.445Z,282.23
2018-11-25T14:43:31.047Z,273.63
2018-11-25T14:46:01.346Z,282.27
2018-11-25T14:48:30.822Z,277.50
2018-11-25T14:51:00.769Z,280.50
2018-11-25T14:53:31.790Z,280.47
2018-11-25T14:56:04.260Z,276.07
2018-11-25T14:58:34.279Z,281.07
2018-11-25T15:01:05.945Z,274.73
2018-11-25T15:03:36.209Z,306.93
2018-11-25T15:06:06.172Z,287.30
2018-11-25T15:08:36.519Z,276.23
2018-11-25T15:11:06.645Z,276.90
2018-11-25T15:13:36.642Z,287.53
2018-11-25T15:16:06.885Z,273.33
2018-11-25T15:18:37.294Z,274.13
2018-11-25T15:21:07.597Z,262.60
2018-11-25T15:23:38.624Z,270.60
2018-11-25T15:26:08.480Z,284.73
2018-11-25T15:28:38.835Z,282.40
2018-11-25T15:33:52.328Z,304.70
2018-11-25T15:36:22.237Z,313.43
2018-11-25T15:38:53.118Z,303.03
2018-11-25T15:41:23.076Z,309.17
2018-11-25T15:43:53.284Z,286.93
2018-11-25T15:46:23.198Z,290.00
2018-11-25T15:48:53.754Z,288.10
2018-11-25T15:51:23.890Z,276.57
2018-11-25T15:53:53.881Z,282.03
2018-11-25T15:56:24.340Z,285.70
2018-11-25T15:58:54.546Z,283.00
2018-11-25T16:01:24.567Z,297.23
2018-11-25T16:03:54.347Z,302.10
2018-11-25T16:06:24.405Z,292.63
2018-11-25T16:08:54.526Z,286.87
2018-11-25T16:11:24.375Z,292.57
2018-11-25T16:13:54.448Z,286.47
2018-11-25T16:16:24.731Z,284.17
2018-11-25T16:18:55.037Z,292.97
2018-11-25T16:21:25.205Z,314.63
2018-11-25T16:23:55.036Z,285.50
2018-11-25T16:26:25.728Z,308.57
2018-11-25T16:28:55.469Z,295.87
2018-11-25T16:31:25.688Z,287.70
2018-11-25T16:33:55.286Z,308.57
2018-11-25T16:36:25.329Z,287.57
2018-11-25T16:38:55.426Z,359.93
2018-11-25T16:41:25.565Z,331.60
2018-11-25T16:43:55.591Z,333.03
2018-11-25T16:46:26.050Z,324.17
2018-11-25T16:48:56.070Z,311.53
2018-11-25T16:51:26.399Z,331.97
2018-11-25T16:53:55.836Z,339.37
2018-11-25T16:56:25.667Z,323.80
2018-11-25T16:58:55.353Z,304.30
2018-11-25T17:01:25.593Z,308.60
2018-11-25T17:03:55.427Z,297.17
2018-11-25T17:06:27.196Z,301.33
2018-11-25T17:08:57.065Z,297.87
2018-11-25T17:11:27.053Z,322.07
2018-11-25T17:13:56.842Z,332.60
2018-11-25T17:16:27.194Z,300.03
2018-11-25T17:18:57.032Z,314.97
2018-11-25T17:21:27.360Z,296.77
2018-11-25T17:23:56.995Z,321.10
2018-11-25T17:26:26.676Z,302.70
2018-11-25T17:28:57.014Z,322.97
2018-11-25T17:31:26.925Z,307.13
2018-11-25T17:33:56.728Z,311.87
2018-11-25T17:36:26.719Z,306.43
2018-11-25T17:38:56.563Z,297.67
2018-11-25T17:41:28.324Z,285.30
2018-11-25T17:43:58.440Z,309.77
2018-11-25T17:46:28.315Z,306.87
2018-11-25T17:48:58.161Z,302.60
2018-11-25T17:51:28.519Z,304.23
2018-11-25T17:53:58.567Z,307.27
2018-11-25T17:56:28.509Z,304.00
2018-11-25T17:58:57.999Z,291.50
2018-11-25T18:01:28.041Z,297.60
2018-11-25T18:03:58.076Z,312.33
2018-11-25T18:06:28.029Z,294.17
2018-11-25T18:08:58.564Z,289.90
2018-11-25T18:11:28.836Z,279.37
2018-11-25T18:13:58.483Z,277.70
2018-11-25T18:16:28.803Z,281.57
2018-11-25T18:18:58.677Z,279.70
2018-11-25T18:21:28.807Z,288.57
2018-11-25T18:23:59.041Z,279.73
2018-11-25T18:26:29.022Z,276.40
2018-11-25T18:28:59.229Z,272.57
2018-11-25T18:31:28.953Z,278.83
2018-11-25T18:33:58.784Z,277.60
2018-11-25T18:36:28.801Z,278.23
2018-11-25T18:38:58.586Z,280.90
2018-11-25T18:41:28.637Z,285.87
2018-11-25T18:43:59.052Z,294.47
2018-11-25T18:46:29.760Z,293.47
2018-11-25T18:49:00.307Z,301.70
2018-11-25T18:51:30.882Z,284.17
2018-11-25T18:54:01.607Z,275.30
2018-11-25T18:56:31.486Z,281.73
2018-11-25T18:59:01.792Z,293.17
2018-11-25T19:01:31.511Z,284.73
2018-11-25T19:04:01.641Z,278.70
2018-11-25T19:06:31.239Z,292.53
2018-11-25T19:09:02.078Z,290.00
2018-11-25T19:11:32.163Z,292.43
2018-11-25T19:14:02.564Z,304.50
2018-11-25T19:16:32.024Z,297.90
2018-11-25T19:19:02.442Z,337.23
2018-11-25T19:21:31.988Z,311.60
2018-11-25T19:24:01.444Z,321.47
2018-11-25T19:26:31.675Z,348.93
2018-11-25T19:29:01.440Z,334.23
2018-11-25T19:31:31.684Z,302.17
2018-11-25T19:34:01.111Z,301.80
2018-11-25T19:36:31.116Z,295.50
2018-11-25T19:39:00.635Z,288.70
2018-11-25T19:41:30.882Z,272.50
2018-11-25T19:44:01.597Z,271.17
2018-11-25T19:46:31.780Z,271.70
2018-11-25T19:49:02.036Z,263.83
2018-11-25T19:51:32.307Z,266.73
2018-11-25T19:54:02.242Z,265.73
2018-11-25T19:56:32.180Z,268.50
2018-11-25T19:59:02.612Z,252.33
2018-11-25T20:01:32.961Z,248.77
2018-11-25T20:04:03.570Z,262.73
2018-11-25T20:06:34.111Z,270.10
2018-11-25T20:09:05.276Z,263.53
2018-11-25T20:11:35.382Z,256.03
2018-11-25T20:14:05.629Z,258.10
2018-11-25T20:16:35.877Z,248.90
2018-11-25T20:19:05.949Z,238.47
2018-11-25T20:21:36.046Z,248.67
2018-11-25T20:24:05.993Z,241.17
2018-11-25T20:26:36.509Z,253.23
2018-11-25T20:29:06.554Z,269.83
2018-11-25T20:31:36.224Z,246.30
2018-11-25T20:34:06.507Z,250.37
2018-11-25T20:36:36.043Z,235.63
2018-11-25T20:39:06.563Z,262.67
2018-11-25T20:41:36.161Z,277.47
2018-11-25T20:44:06.307Z,269.60
2018-11-25T20:46:36.005Z,259.33
2018-11-25T20:49:05.841Z,243.27
2018-11-25T20:51:35.635Z,243.60
2018-11-25T20:54:06.723Z,228.83
2018-11-25T20:56:36.962Z,245.63
2018-11-25T20:59:07.431Z,237.97
2018-11-25T21:01:37.646Z,251.97
2018-11-25T21:04:07.722Z,241.47
2018-11-25T21:06:37.752Z,239.43
2018-11-25T21:09:08.182Z,257.07
2018-11-25T21:11:38.643Z,238.93
2018-11-25T21:14:08.406Z,234.87
2018-11-25T21:16:38.757Z,234.23
2018-11-25T21:19:08.683Z,250.53
2018-11-25T21:21:39.227Z,239.47
2018-11-25T21:24:08.956Z,257.00
2018-11-25T21:26:39.144Z,239.83
2018-11-25T21:29:09.465Z,245.60
2018-11-25T21:31:39.719Z,232.30
2018-11-25T21:34:09.784Z,225.90
2018-11-25T21:36:40.637Z,233.13
2018-11-25T21:39:10.647Z,222.57
2018-11-25T21:41:41.122Z,231.97
2018-11-25T21:44:11.004Z,238.60
2018-11-25T21:46:41.127Z,226.83
2018-11-25T21:49:11.000Z,225.13
2018-11-25T21:51:41.067Z,223.23
2018-11-25T21:54:11.246Z,225.33
2018-11-25T21:56:41.275Z,222.80
2018-11-25T21:59:11.363Z,217.63
2018-11-25T22:01:41.923Z,223.83
2018-11-25T22:04:12.033Z,218.40
2018-11-25T22:06:42.288Z,211.13
2018-11-25T22:09:12.722Z,233.70
2018-11-25T22:11:42.805Z,248.27
2018-11-25T22:14:12.807Z,227.90
2018-11-25T22:16:42.236Z,229.77
2018-11-25T22:19:12.645Z,218.40
2018-11-25T22:21:42.886Z,224.10
2018-11-25T22:24:13.275Z,234.80
2018-11-25T22:26:43.663Z,215.43
2018-11-25T22:29:13.583Z,241.43
2018-11-25T22:31:43.568Z,230.10
2018-11-25T22:34:14.081Z,234.37
2018-11-25T22:36:44.848Z,233.07
2018-11-25T22:39:14.774Z,254.00
2018-11-25T22:41:44.775Z,241.60
2018-11-25T22:44:14.842Z,238.07
2018-11-25T22:46:44.728Z,242.30
2018-11-25T22:49:14.805Z,237.90
2018-11-25T22:51:44.844Z,248.37
2018-11-25T22:54:15.189Z,271.03
2018-11-25T22:56:45.147Z,254.13
2018-11-25T22:59:14.875Z,248.20
2018-11-25T23:01:44.967Z,248.87
2018-11-25T23:04:14.586Z,259.43
2018-11-25T23:06:44.801Z,244.60
2018-11-25T23:09:15.350Z,276.07
2018-11-25T23:11:45.712Z,268.63
2018-11-25T23:14:15.507Z,273.60
2018-11-25T23:16:45.760Z,253.67
2018-11-25T23:19:15.837Z,253.83
2018-11-25T23:21:45.959Z,263.63
2018-11-25T23:24:16.001Z,270.80
2018-11-25T23:26:46.908Z,265.20
2018-11-25T23:29:16.959Z,263.27
2018-11-25T23:31:46.806Z,312.50
2018-11-25T23:34:16.853Z,275.13
2018-11-25T23:36:46.848Z,255.33
2018-11-25T23:39:17.547Z,233.20
2018-11-25T23:41:47.522Z,279.30
2018-11-25T23:44:17.325Z,256.57
2018-11-25T23:46:47.480Z,246.77
2018-11-25T23:49:17.371Z,240.63
2018-11-25T23:51:47.365Z,242.33
2018-11-25T23:54:17.310Z,233.37
2018-11-25T23:56:47.681Z,233.27
2018-11-25T23:59:17.320Z,247.10
